sensor_id;sensor_type;location;lat;lon;timestamp;temperature;humidity
2523;DHT22;1272;53.332;9.860;2024-03-25T00:01:02;5.70;1.00
2523;DHT22;1272;53.332;9.860;2024-03-25T00:03:28;5.80;1.00
2523;DHT22;1272;53.332;9.860;2024-03-25T00:05:54;5.70;99.90
2523;DHT22;1272;53.332;9.860;2024-03-25T00:08:20;5.70;99.90
2523;DHT22;1272;53.332;9.860;2024-03-25T00:10:46;5.80;99.90
2523;DHT22;1272;53.332;9.860;2024-03-25T00:13:12;5.70;99.90
2523;DHT22;1272;53.332;9.860;2024-03-25T00:15:37;5.80;99.90
2523;DHT22;1272;53.332;9.860;2024-03-25T00:18:04;5.80;99.90
2523;DHT22;1272;53.332;9.860;2024-03-25T00:20:30;5.80;99.90
2523;DHT22;1272;53.332;9.860;2024-03-25T00:22:55;5.80;77.90
2523;DHT22;1272;53.332;9.860;2024-03-25T00:25:21;5.70;84.60
2523;DHT22;1272;53.332;9.860;2024-03-25T00:27:47;5.80;74.70
2523;DHT22;1272;53.332;9.860;2024-03-25T00:30:13;5.70;1.00
2523;DHT22;1272;53.332;9.860;2024-03-25T00:32:39;5.70;25.40
2523;DHT22;1272;53.332;9.860;2024-03-25T00:35:05;5.70;1.00
2523;DHT22;1272;53.332;9.860;2024-03-25T00:37:31;5.70;1.00
2523;DHT22;1272;53.332;9.860;2024-03-25T00:39:57;5.70;1.00
2523;DHT22;1272;53.332;9.860;2024-03-25T00:42:23;5.70;1.00
2523;DHT22;1272;53.332;9.860;2024-03-25T00:44:48;5.60;22.30
2523;DHT22;1272;53.332;9.860;2024-03-25T00:47:14;5.60;99.90
2523;DHT22;1272;53.332;9.860;2024-03-25T00:49:40;5.60;99.90
2523;DHT22;1272;53.332;9.860;2024-03-25T00:52:06;5.60;99.90
2523;DHT22;1272;53.332;9.860;2024-03-25T00:54:31;5.60;99.90
2523;DHT22;1272;53.332;9.860;2024-03-25T00:56:57;5.60;99.90
2523;DHT22;1272;53.332;9.860;2024-03-25T00:59:23;5.60;1.00
2523;DHT22;1272;53.332;9.860;2024-03-25T01:01:48;5.60;61.90
2523;DHT22;1272;53.332;9.860;2024-03-25T01:04:14;5.50;99.90
2523;DHT22;1272;53.332;9.860;2024-03-25T01:06:40;5.50;99.90
2523;DHT22;1272;53.332;9.860;2024-03-25T01:09:05;5.50;99.90
2523;DHT22;1272;53.332;9.860;2024-03-25T01:11:33;5.50;1.00
2523;DHT22;1272;53.332;9.860;2024-03-25T01:13:59;5.50;99.90
2523;DHT22;1272;53.332;9.860;2024-03-25T01:16:25;5.50;99.90
2523;DHT22;1272;53.332;9.860;2024-03-25T01:18:50;5.50;99.90
2523;DHT22;1272;53.332;9.860;2024-03-25T01:21:16;5.50;99.90
2523;DHT22;1272;53.332;9.860;2024-03-25T01:23:42;5.50;1.00
2523;DHT22;1272;53.332;9.860;2024-03-25T01:26:07;5.40;1.00
2523;DHT22;1272;53.332;9.860;2024-03-25T01:28:33;5.50;1.00
2523;DHT22;1272;53.332;9.860;2024-03-25T01:30:59;5.40;99.90
2523;DHT22;1272;53.332;9.860;2024-03-25T01:33:24;5.40;99.90
2523;DHT22;1272;53.332;9.860;2024-03-25T01:35:50;5.40;99.90
2523;DHT22;1272;53.332;9.860;2024-03-25T01:38:16;5.40;99.90
2523;DHT22;1272;53.332;9.860;2024-03-25T01:40:42;5.50;99.90
2523;DHT22;1272;53.332;9.860;2024-03-25T01:43:07;5.40;1.00
2523;DHT22;1272;53.332;9.860;2024-03-25T01:45:34;5.40;1.00
2523;DHT22;1272;53.332;9.860;2024-03-25T01:48:06;5.50;1.00
2523;DHT22;1272;53.332;9.860;2024-03-25T01:50:35;5.50;99.90
2523;DHT22;1272;53.332;9.860;2024-03-25T01:53:03;5.40;99.90
2523;DHT22;1272;53.332;9.860;2024-03-25T01:55:31;5.40;99.90
2523;DHT22;1272;53.332;9.860;2024-03-25T01:57:57;5.40;1.00
2523;DHT22;1272;53.332;9.860;2024-03-25T02:00:24;5.40;99.90
2523;DHT22;1272;53.332;9.860;2024-03-25T02:02:51;5.40;99.90
2523;DHT22;1272;53.332;9.860;2024-03-25T02:05:17;5.50;99.90
2523;DHT22;1272;53.332;9.860;2024-03-25T02:07:44;5.50;1.00
2523;DHT22;1272;53.332;9.860;2024-03-25T02:10:10;5.50;1.00
2523;DHT22;1272;53.332;9.860;2024-03-25T02:12:43;5.50;1.00
2523;DHT22;1272;53.332;9.860;2024-03-25T02:15:10;5.40;32.70
2523;DHT22;1272;53.332;9.860;2024-03-25T02:17:37;5.40;99.00
2523;DHT22;1272;53.332;9.860;2024-03-25T02:20:03;5.40;99.90
2523;DHT22;1272;53.332;9.860;2024-03-25T02:22:34;5.50;99.90
2523;DHT22;1272;53.332;9.860;2024-03-25T02:25:00;5.50;85.80
2523;DHT22;1272;53.332;9.860;2024-03-25T02:27:26;5.40;99.90
2523;DHT22;1272;53.332;9.860;2024-03-25T02:30:05;5.40;1.00
2523;DHT22;1272;53.332;9.860;2024-03-25T02:32:35;5.40;1.00
2523;DHT22;1272;53.332;9.860;2024-03-25T02:35:04;5.30;1.00
2523;DHT22;1272;53.332;9.860;2024-03-25T02:37:30;5.30;1.00
2523;DHT22;1272;53.332;9.860;2024-03-25T02:39:59;5.30;1.00
2523;DHT22;1272;53.332;9.860;2024-03-25T02:42:25;5.30;99.90
2523;DHT22;1272;53.332;9.860;2024-03-25T02:44:55;5.30;99.90
2523;DHT22;1272;53.332;9.860;2024-03-25T02:47:21;5.30;1.00
2523;DHT22;1272;53.332;9.860;2024-03-25T02:49:47;5.20;99.90
2523;DHT22;1272;53.332;9.860;2024-03-25T02:52:13;5.20;99.90
2523;DHT22;1272;53.332;9.860;2024-03-25T02:54:38;5.20;99.90
2523;DHT22;1272;53.332;9.860;2024-03-25T02:57:04;5.20;99.90
2523;DHT22;1272;53.332;9.860;2024-03-25T02:59:30;5.20;99.90
2523;DHT22;1272;53.332;9.860;2024-03-25T03:01:56;5.20;99.90
2523;DHT22;1272;53.332;9.860;2024-03-25T03:04:21;5.10;1.00
2523;DHT22;1272;53.332;9.860;2024-03-25T03:06:47;5.10;1.00
2523;DHT22;1272;53.332;9.860;2024-03-25T03:09:13;5.10;35.70
2523;DHT22;1272;53.332;9.860;2024-03-25T03:11:38;5.10;90.40
2523;DHT22;1272;53.332;9.860;2024-03-25T03:14:04;5.10;99.90
2523;DHT22;1272;53.332;9.860;2024-03-25T03:16:30;5.00;95.80
2523;DHT22;1272;53.332;9.860;2024-03-25T03:18:55;5.10;1.00
2523;DHT22;1272;53.332;9.860;2024-03-25T03:21:21;5.10;1.00
2523;DHT22;1272;53.332;9.860;2024-03-25T03:23:47;5.20;1.00
2523;DHT22;1272;53.332;9.860;2024-03-25T03:26:12;5.20;99.90
2523;DHT22;1272;53.332;9.860;2024-03-25T03:28:39;5.20;99.90
2523;DHT22;1272;53.332;9.860;2024-03-25T03:31:05;5.20;29.00
2523;DHT22;1272;53.332;9.860;2024-03-25T03:33:31;5.20;1.00
2523;DHT22;1272;53.332;9.860;2024-03-25T03:35:57;5.20;1.00
2523;DHT22;1272;53.332;9.860;2024-03-25T03:38:23;5.20;1.00
2523;DHT22;1272;53.332;9.860;2024-03-25T03:41:02;5.20;1.00
2523;DHT22;1272;53.332;9.860;2024-03-25T03:43:28;5.30;1.00
2523;DHT22;1272;53.332;9.860;2024-03-25T03:45:53;5.30;1.00
2523;DHT22;1272;53.332;9.860;2024-03-25T03:48:19;5.20;1.00
2523;DHT22;1272;53.332;9.860;2024-03-25T03:50:45;5.30;1.00
2523;DHT22;1272;53.332;9.860;2024-03-25T03:53:11;5.30;1.00
2523;DHT22;1272;53.332;9.860;2024-03-25T03:55:37;5.30;1.00
2523;DHT22;1272;53.332;9.860;2024-03-25T03:58:03;5.30;1.00
2523;DHT22;1272;53.332;9.860;2024-03-25T04:00:29;5.30;1.00
2523;DHT22;1272;53.332;9.860;2024-03-25T04:02:55;5.20;1.00
2523;DHT22;1272;53.332;9.860;2024-03-25T04:05:20;5.20;1.00
2523;DHT22;1272;53.332;9.860;2024-03-25T04:07:46;5.20;66.20
2523;DHT22;1272;53.332;9.860;2024-03-25T04:10:12;5.10;99.90
2523;DHT22;1272;53.332;9.860;2024-03-25T04:12:39;5.20;1.00
2523;DHT22;1272;53.332;9.860;2024-03-25T04:15:05;5.30;1.00
2523;DHT22;1272;53.332;9.860;2024-03-25T04:17:31;5.20;99.90
2523;DHT22;1272;53.332;9.860;2024-03-25T04:19:59;5.20;1.00
2523;DHT22;1272;53.332;9.860;2024-03-25T04:22:26;5.10;99.90
2523;DHT22;1272;53.332;9.860;2024-03-25T04:24:51;5.10;1.00
2523;DHT22;1272;53.332;9.860;2024-03-25T04:27:17;5.10;35.50
2523;DHT22;1272;53.332;9.860;2024-03-25T04:29:46;5.20;99.90
2523;DHT22;1272;53.332;9.860;2024-03-25T04:32:12;5.10;99.90
2523;DHT22;1272;53.332;9.860;2024-03-25T04:34:38;5.00;1.00
2523;DHT22;1272;53.332;9.860;2024-03-25T04:37:03;5.00;1.00
2523;DHT22;1272;53.332;9.860;2024-03-25T04:39:30;5.00;99.90
2523;DHT22;1272;53.332;9.860;2024-03-25T04:41:56;5.10;85.60
2523;DHT22;1272;53.332;9.860;2024-03-25T04:44:22;5.00;99.90
2523;DHT22;1272;53.332;9.860;2024-03-25T04:46:47;5.00;99.90
2523;DHT22;1272;53.332;9.860;2024-03-25T04:49:13;5.00;99.90
2523;DHT22;1272;53.332;9.860;2024-03-25T04:51:39;4.90;99.90
2523;DHT22;1272;53.332;9.860;2024-03-25T04:54:05;4.90;99.90
2523;DHT22;1272;53.332;9.860;2024-03-25T04:56:30;4.90;99.90
2523;DHT22;1272;53.332;9.860;2024-03-25T04:58:57;4.80;1.00
2523;DHT22;1272;53.332;9.860;2024-03-25T05:01:27;4.80;1.00
2523;DHT22;1272;53.332;9.860;2024-03-25T05:03:53;4.80;92.50
2523;DHT22;1272;53.332;9.860;2024-03-25T05:06:19;4.70;99.90
2523;DHT22;1272;53.332;9.860;2024-03-25T05:08:44;4.70;99.90
2523;DHT22;1272;53.332;9.860;2024-03-25T05:11:10;4.70;99.90
2523;DHT22;1272;53.332;9.860;2024-03-25T05:13:36;4.80;99.90
2523;DHT22;1272;53.332;9.860;2024-03-25T05:16:01;4.80;62.20
2523;DHT22;1272;53.332;9.860;2024-03-25T05:18:27;4.80;10.10
2523;DHT22;1272;53.332;9.860;2024-03-25T05:20:53;4.80;99.90
2523;DHT22;1272;53.332;9.860;2024-03-25T05:23:18;4.80;99.90
2523;DHT22;1272;53.332;9.860;2024-03-25T05:25:44;4.80;99.90
2523;DHT22;1272;53.332;9.860;2024-03-25T05:28:10;4.80;99.90
2523;DHT22;1272;53.332;9.860;2024-03-25T05:30:35;4.80;10.30
2523;DHT22;1272;53.332;9.860;2024-03-25T05:33:01;4.90;98.40
2523;DHT22;1272;53.332;9.860;2024-03-25T05:35:27;4.90;9.50
2523;DHT22;1272;53.332;9.860;2024-03-25T05:37:53;4.90;36.30
2523;DHT22;1272;53.332;9.860;2024-03-25T05:40:19;4.80;99.90
2523;DHT22;1272;53.332;9.860;2024-03-25T05:42:45;4.80;99.90
2523;DHT22;1272;53.332;9.860;2024-03-25T05:45:11;4.80;99.90
2523;DHT22;1272;53.332;9.860;2024-03-25T05:47:37;4.80;1.00
2523;DHT22;1272;53.332;9.860;2024-03-25T05:50:03;4.80;1.00
2523;DHT22;1272;53.332;9.860;2024-03-25T05:52:31;4.80;1.00
2523;DHT22;1272;53.332;9.860;2024-03-25T05:54:57;4.80;1.00
2523;DHT22;1272;53.332;9.860;2024-03-25T05:57:23;4.80;1.00
2523;DHT22;1272;53.332;9.860;2024-03-25T05:59:49;4.90;1.00
2523;DHT22;1272;53.332;9.860;2024-03-25T06:02:14;4.90;1.00
2523;DHT22;1272;53.332;9.860;2024-03-25T06:04:40;5.00;1.00
2523;DHT22;1272;53.332;9.860;2024-03-25T06:07:06;5.00;1.00
2523;DHT22;1272;53.332;9.860;2024-03-25T06:09:32;5.00;1.00
2523;DHT22;1272;53.332;9.860;2024-03-25T06:11:57;5.00;1.00
2523;DHT22;1272;53.332;9.860;2024-03-25T06:14:23;5.00;1.00
2523;DHT22;1272;53.332;9.860;2024-03-25T06:16:49;5.10;1.00
2523;DHT22;1272;53.332;9.860;2024-03-25T06:19:15;5.10;93.20
2523;DHT22;1272;53.332;9.860;2024-03-25T06:21:40;5.10;99.90
2523;DHT22;1272;53.332;9.860;2024-03-25T06:24:08;5.20;1.00
2523;DHT22;1272;53.332;9.860;2024-03-25T06:26:34;5.10;99.90
2523;DHT22;1272;53.332;9.860;2024-03-25T06:29:00;5.20;99.90
2523;DHT22;1272;53.332;9.860;2024-03-25T06:31:25;5.10;99.90
2523;DHT22;1272;53.332;9.860;2024-03-25T06:34:09;5.10;99.90
2523;DHT22;1272;53.332;9.860;2024-03-25T06:36:47;5.10;99.90
2523;DHT22;1272;53.332;9.860;2024-03-25T06:39:13;5.10;1.00
2523;DHT22;1272;53.332;9.860;2024-03-25T06:41:39;5.10;54.10
2523;DHT22;1272;53.332;9.860;2024-03-25T06:44:05;5.20;99.90
2523;DHT22;1272;53.332;9.860;2024-03-25T06:46:31;5.20;1.00
2523;DHT22;1272;53.332;9.860;2024-03-25T06:48:57;5.20;99.90
2523;DHT22;1272;53.332;9.860;2024-03-25T06:51:23;5.30;89.10
2523;DHT22;1272;53.332;9.860;2024-03-25T06:53:49;5.30;99.90
2523;DHT22;1272;53.332;9.860;2024-03-25T06:56:15;5.40;99.90
2523;DHT22;1272;53.332;9.860;2024-03-25T06:58:40;5.50;49.60
2523;DHT22;1272;53.332;9.860;2024-03-25T07:01:08;5.60;1.00
2523;DHT22;1272;53.332;9.860;2024-03-25T07:03:35;5.60;1.00
2523;DHT22;1272;53.332;9.860;2024-03-25T07:06:01;5.70;99.90
2523;DHT22;1272;53.332;9.860;2024-03-25T07:08:27;5.70;19.30
2523;DHT22;1272;53.332;9.860;2024-03-25T07:10:54;5.70;1.00
2523;DHT22;1272;53.332;9.860;2024-03-25T07:13:20;5.80;1.00
2523;DHT22;1272;53.332;9.860;2024-03-25T07:15:46;5.70;99.90
2523;DHT22;1272;53.332;9.860;2024-03-25T07:18:12;5.70;99.90
2523;DHT22;1272;53.332;9.860;2024-03-25T07:20:41;5.80;99.90
2523;DHT22;1272;53.332;9.860;2024-03-25T07:23:06;5.80;99.90
2523;DHT22;1272;53.332;9.860;2024-03-25T07:25:32;5.80;99.90
2523;DHT22;1272;53.332;9.860;2024-03-25T07:27:58;5.90;99.90
2523;DHT22;1272;53.332;9.860;2024-03-25T07:30:24;5.90;1.00
2523;DHT22;1272;53.332;9.860;2024-03-25T07:32:57;5.90;1.00
2523;DHT22;1272;53.332;9.860;2024-03-25T07:35:23;5.90;1.00
2523;DHT22;1272;53.332;9.860;2024-03-25T07:37:48;6.10;1.00
2523;DHT22;1272;53.332;9.860;2024-03-25T07:40:17;6.10;99.90
2523;DHT22;1272;53.332;9.860;2024-03-25T07:42:43;6.00;99.90
2523;DHT22;1272;53.332;9.860;2024-03-25T07:45:09;6.00;99.90
2523;DHT22;1272;53.332;9.860;2024-03-25T07:47:35;6.00;99.90
2523;DHT22;1272;53.332;9.860;2024-03-25T07:50:01;6.00;99.90
2523;DHT22;1272;53.332;9.860;2024-03-25T07:52:27;5.90;1.00
2523;DHT22;1272;53.332;9.860;2024-03-25T07:54:54;6.00;1.00
2523;DHT22;1272;53.332;9.860;2024-03-25T07:57:20;6.00;1.00
2523;DHT22;1272;53.332;9.860;2024-03-25T07:59:46;5.90;28.30
2523;DHT22;1272;53.332;9.860;2024-03-25T08:02:12;5.90;99.90
2523;DHT22;1272;53.332;9.860;2024-03-25T08:04:38;6.00;99.90
2523;DHT22;1272;53.332;9.860;2024-03-25T08:07:04;6.10;99.90
2523;DHT22;1272;53.332;9.860;2024-03-25T08:09:29;6.10;99.90
2523;DHT22;1272;53.332;9.860;2024-03-25T08:11:55;6.20;99.90
2523;DHT22;1272;53.332;9.860;2024-03-25T08:14:21;6.20;99.90
2523;DHT22;1272;53.332;9.860;2024-03-25T08:16:46;6.30;99.90
2523;DHT22;1272;53.332;9.860;2024-03-25T08:19:12;6.40;99.90
2523;DHT22;1272;53.332;9.860;2024-03-25T08:21:38;6.40;86.70
2523;DHT22;1272;53.332;9.860;2024-03-25T08:24:04;6.40;28.80
2523;DHT22;1272;53.332;9.860;2024-03-25T08:26:30;6.40;1.00
2523;DHT22;1272;53.332;9.860;2024-03-25T08:28:55;6.50;1.00
2523;DHT22;1272;53.332;9.860;2024-03-25T08:31:21;6.50;1.00
2523;DHT22;1272;53.332;9.860;2024-03-25T08:33:47;6.60;99.90
2523;DHT22;1272;53.332;9.860;2024-03-25T08:36:12;6.60;18.40
2523;DHT22;1272;53.332;9.860;2024-03-25T08:38:38;6.60;1.00
2523;DHT22;1272;53.332;9.860;2024-03-25T08:41:04;6.60;1.00
2523;DHT22;1272;53.332;9.860;2024-03-25T08:43:29;6.60;99.90
2523;DHT22;1272;53.332;9.860;2024-03-25T08:45:55;6.60;99.90
2523;DHT22;1272;53.332;9.860;2024-03-25T08:48:22;6.60;99.90
2523;DHT22;1272;53.332;9.860;2024-03-25T08:50:48;6.60;99.90
2523;DHT22;1272;53.332;9.860;2024-03-25T08:53:14;6.70;99.90
2523;DHT22;1272;53.332;9.860;2024-03-25T08:55:49;6.70;55.80
2523;DHT22;1272;53.332;9.860;2024-03-25T08:58:15;6.80;1.00
2523;DHT22;1272;53.332;9.860;2024-03-25T09:00:44;6.70;1.00
2523;DHT22;1272;53.332;9.860;2024-03-25T09:03:10;6.80;1.00
2523;DHT22;1272;53.332;9.860;2024-03-25T09:05:36;6.90;1.00
2523;DHT22;1272;53.332;9.860;2024-03-25T09:08:07;7.10;99.90
2523;DHT22;1272;53.332;9.860;2024-03-25T09:10:36;7.10;99.90
2523;DHT22;1272;53.332;9.860;2024-03-25T09:13:21;7.30;99.90
2523;DHT22;1272;53.332;9.860;2024-03-25T09:15:48;7.20;99.90
2523;DHT22;1272;53.332;9.860;2024-03-25T09:18:14;7.30;99.90
2523;DHT22;1272;53.332;9.860;2024-03-25T09:20:40;7.40;99.90
2523;DHT22;1272;53.332;9.860;2024-03-25T09:23:05;7.50;99.90
2523;DHT22;1272;53.332;9.860;2024-03-25T09:25:31;7.60;30.20
2523;DHT22;1272;53.332;9.860;2024-03-25T09:27:57;7.60;51.50
2523;DHT22;1272;53.332;9.860;2024-03-25T09:30:22;7.50;1.00
2523;DHT22;1272;53.332;9.860;2024-03-25T09:32:48;7.60;1.00
2523;DHT22;1272;53.332;9.860;2024-03-25T09:35:14;7.70;1.00
2523;DHT22;1272;53.332;9.860;2024-03-25T09:37:39;7.70;1.00
2523;DHT22;1272;53.332;9.860;2024-03-25T09:40:05;8.00;1.00
2523;DHT22;1272;53.332;9.860;2024-03-25T09:42:42;8.20;1.00
2523;DHT22;1272;53.332;9.860;2024-03-25T09:45:09;8.20;1.00
2523;DHT22;1272;53.332;9.860;2024-03-25T09:47:39;8.00;1.00
2523;DHT22;1272;53.332;9.860;2024-03-25T09:50:06;7.70;1.00
2523;DHT22;1272;53.332;9.860;2024-03-25T09:52:33;7.50;1.00
2523;DHT22;1272;53.332;9.860;2024-03-25T09:54:59;7.40;99.90
2523;DHT22;1272;53.332;9.860;2024-03-25T09:57:25;7.40;99.90
2523;DHT22;1272;53.332;9.860;2024-03-25T09:59:51;7.50;99.90
2523;DHT22;1272;53.332;9.860;2024-03-25T10:02:18;7.40;49.30
2523;DHT22;1272;53.332;9.860;2024-03-25T10:04:46;7.50;99.90
2523;DHT22;1272;53.332;9.860;2024-03-25T10:07:21;7.40;1.00
2523;DHT22;1272;53.332;9.860;2024-03-25T10:09:48;7.50;1.00
2523;DHT22;1272;53.332;9.860;2024-03-25T10:12:13;7.50;1.00
2523;DHT22;1272;53.332;9.860;2024-03-25T10:14:42;7.70;1.00
2523;DHT22;1272;53.332;9.860;2024-03-25T10:17:08;7.90;1.00
2523;DHT22;1272;53.332;9.860;2024-03-25T10:19:34;8.20;1.00
2523;DHT22;1272;53.332;9.860;2024-03-25T10:22:07;8.40;1.00
2523;DHT22;1272;53.332;9.860;2024-03-25T10:24:46;8.60;1.00
2523;DHT22;1272;53.332;9.860;2024-03-25T10:27:19;8.60;99.90
2523;DHT22;1272;53.332;9.860;2024-03-25T10:29:52;8.50;99.90
2523;DHT22;1272;53.332;9.860;2024-03-25T10:32:19;8.60;99.90
2523;DHT22;1272;53.332;9.860;2024-03-25T10:34:45;8.50;99.90
2523;DHT22;1272;53.332;9.860;2024-03-25T10:37:11;8.40;99.90
2523;DHT22;1272;53.332;9.860;2024-03-25T10:39:54;8.20;99.90
2523;DHT22;1272;53.332;9.860;2024-03-25T10:42:23;8.20;99.90
2523;DHT22;1272;53.332;9.860;2024-03-25T10:44:50;8.20;99.90
2523;DHT22;1272;53.332;9.860;2024-03-25T10:47:20;8.30;99.90
2523;DHT22;1272;53.332;9.860;2024-03-25T10:49:50;8.40;99.90
2523;DHT22;1272;53.332;9.860;2024-03-25T10:52:16;8.50;99.90
2523;DHT22;1272;53.332;9.860;2024-03-25T10:54:43;8.60;99.90
2523;DHT22;1272;53.332;9.860;2024-03-25T10:57:11;8.80;99.90
2523;DHT22;1272;53.332;9.860;2024-03-25T10:59:38;9.10;99.90
2523;DHT22;1272;53.332;9.860;2024-03-25T11:02:07;9.30;99.90
2523;DHT22;1272;53.332;9.860;2024-03-25T11:04:33;9.40;99.90
2523;DHT22;1272;53.332;9.860;2024-03-25T11:07:12;9.50;99.90
2523;DHT22;1272;53.332;9.860;2024-03-25T11:09:39;9.50;99.90
2523;DHT22;1272;53.332;9.860;2024-03-25T11:12:05;9.60;99.90
2523;DHT22;1272;53.332;9.860;2024-03-25T11:14:31;9.70;99.90
2523;DHT22;1272;53.332;9.860;2024-03-25T11:17:01;9.70;99.90
2523;DHT22;1272;53.332;9.860;2024-03-25T11:19:30;9.90;99.90
2523;DHT22;1272;53.332;9.860;2024-03-25T11:22:10;10.20;99.90
2523;DHT22;1272;53.332;9.860;2024-03-25T11:24:36;10.40;99.90
2523;DHT22;1272;53.332;9.860;2024-03-25T11:27:06;10.30;99.90
2523;DHT22;1272;53.332;9.860;2024-03-25T11:29:32;10.30;99.90
2523;DHT22;1272;53.332;9.860;2024-03-25T11:32:01;10.30;99.90
2523;DHT22;1272;53.332;9.860;2024-03-25T11:34:28;10.10;99.20
2523;DHT22;1272;53.332;9.860;2024-03-25T11:36:54;9.90;95.10
2523;DHT22;1272;53.332;9.860;2024-03-25T11:39:22;9.70;98.30
2523;DHT22;1272;53.332;9.860;2024-03-25T11:41:48;9.60;99.90
2523;DHT22;1272;53.332;9.860;2024-03-25T11:44:14;9.60;99.90
2523;DHT22;1272;53.332;9.860;2024-03-25T11:46:40;9.50;99.90
2523;DHT22;1272;53.332;9.860;2024-03-25T11:49:06;9.40;99.90
2523;DHT22;1272;53.332;9.860;2024-03-25T11:51:35;9.30;99.90
2523;DHT22;1272;53.332;9.860;2024-03-25T11:54:04;9.30;99.90
2523;DHT22;1272;53.332;9.860;2024-03-25T11:56:31;9.30;99.90
2523;DHT22;1272;53.332;9.860;2024-03-25T11:58:59;9.30;99.90
2523;DHT22;1272;53.332;9.860;2024-03-25T12:01:25;9.40;99.90
2523;DHT22;1272;53.332;9.860;2024-03-25T12:03:51;9.40;99.90
2523;DHT22;1272;53.332;9.860;2024-03-25T12:06:16;9.40;99.90
2523;DHT22;1272;53.332;9.860;2024-03-25T12:08:42;9.40;99.90
2523;DHT22;1272;53.332;9.860;2024-03-25T12:11:31;9.40;99.90
2523;DHT22;1272;53.332;9.860;2024-03-25T12:13:56;9.30;99.90
2523;DHT22;1272;53.332;9.860;2024-03-25T12:16:23;9.20;99.90
2523;DHT22;1272;53.332;9.860;2024-03-25T12:18:49;9.10;99.90
2523;DHT22;1272;53.332;9.860;2024-03-25T12:21:15;9.10;99.90
2523;DHT22;1272;53.332;9.860;2024-03-25T12:23:42;9.00;99.90
2523;DHT22;1272;53.332;9.860;2024-03-25T12:26:08;9.00;99.90
2523;DHT22;1272;53.332;9.860;2024-03-25T12:28:34;9.30;1.00
2523;DHT22;1272;53.332;9.860;2024-03-25T12:31:02;9.70;1.00
2523;DHT22;1272;53.332;9.860;2024-03-25T12:33:28;10.20;1.00
2523;DHT22;1272;53.332;9.860;2024-03-25T12:35:54;10.60;1.00
2523;DHT22;1272;53.332;9.860;2024-03-25T12:38:27;11.00;99.90
2523;DHT22;1272;53.332;9.860;2024-03-25T12:41:02;11.10;99.90
2523;DHT22;1272;53.332;9.860;2024-03-25T12:43:30;11.30;99.90
2523;DHT22;1272;53.332;9.860;2024-03-25T12:45:57;11.40;99.90
2523;DHT22;1272;53.332;9.860;2024-03-25T12:48:23;11.60;54.00
2523;DHT22;1272;53.332;9.860;2024-03-25T12:50:49;11.70;53.00
2523;DHT22;1272;53.332;9.860;2024-03-25T12:53:18;11.80;51.00
2523;DHT22;1272;53.332;9.860;2024-03-25T12:55:45;11.90;41.80
2523;DHT22;1272;53.332;9.860;2024-03-25T12:58:11;12.10;36.30
2523;DHT22;1272;53.332;9.860;2024-03-25T13:00:37;12.40;30.80
2523;DHT22;1272;53.332;9.860;2024-03-25T13:03:04;12.60;24.30
2523;DHT22;1272;53.332;9.860;2024-03-25T13:05:32;12.80;24.30
2523;DHT22;1272;53.332;9.860;2024-03-25T13:07:57;13.00;13.50
2523;DHT22;1272;53.332;9.860;2024-03-25T13:10:23;13.10;13.30
2523;DHT22;1272;53.332;9.860;2024-03-25T13:12:49;13.20;14.30
2523;DHT22;1272;53.332;9.860;2024-03-25T13:15:15;12.90;1.70
2523;DHT22;1272;53.332;9.860;2024-03-25T13:18:01;12.90;1.00
2523;DHT22;1272;53.332;9.860;2024-03-25T13:20:26;12.80;3.60
2523;DHT22;1272;53.332;9.860;2024-03-25T13:22:54;12.90;1.60
2523;DHT22;1272;53.332;9.860;2024-03-25T13:25:25;12.70;1.00
2523;DHT22;1272;53.332;9.860;2024-03-25T13:27:52;12.40;1.00
2523;DHT22;1272;53.332;9.860;2024-03-25T13:30:18;12.20;1.00
2523;DHT22;1272;53.332;9.860;2024-03-25T13:32:44;11.90;1.00
2523;DHT22;1272;53.332;9.860;2024-03-25T13:35:09;11.70;1.00
2523;DHT22;1272;53.332;9.860;2024-03-25T13:37:35;11.90;1.00
2523;DHT22;1272;53.332;9.860;2024-03-25T13:40:00;11.80;1.00
2523;DHT22;1272;53.332;9.860;2024-03-25T13:42:26;11.70;1.00
2523;DHT22;1272;53.332;9.860;2024-03-25T13:44:52;11.60;1.00
2523;DHT22;1272;53.332;9.860;2024-03-25T13:47:17;11.50;1.00
2523;DHT22;1272;53.332;9.860;2024-03-25T13:49:46;11.60;1.00
2523;DHT22;1272;53.332;9.860;2024-03-25T13:52:11;11.60;1.00
2523;DHT22;1272;53.332;9.860;2024-03-25T13:54:37;11.60;1.00
2523;DHT22;1272;53.332;9.860;2024-03-25T13:57:05;12.00;1.00
2523;DHT22;1272;53.332;9.860;2024-03-25T13:59:31;12.20;1.00
2523;DHT22;1272;53.332;9.860;2024-03-25T14:01:57;12.10;1.00
2523;DHT22;1272;53.332;9.860;2024-03-25T14:04:22;12.00;1.00
2523;DHT22;1272;53.332;9.860;2024-03-25T14:06:48;12.00;1.00
2523;DHT22;1272;53.332;9.860;2024-03-25T14:09:24;11.80;1.00
2523;DHT22;1272;53.332;9.860;2024-03-25T14:11:50;11.50;1.00
2523;DHT22;1272;53.332;9.860;2024-03-25T14:14:16;11.40;1.00
2523;DHT22;1272;53.332;9.860;2024-03-25T14:16:42;11.30;1.00
2523;DHT22;1272;53.332;9.860;2024-03-25T14:19:07;11.00;1.00
2523;DHT22;1272;53.332;9.860;2024-03-25T14:21:34;10.90;1.00
2523;DHT22;1272;53.332;9.860;2024-03-25T14:23:59;10.90;1.00
2523;DHT22;1272;53.332;9.860;2024-03-25T14:26:25;10.80;1.00
2523;DHT22;1272;53.332;9.860;2024-03-25T14:28:50;10.90;1.00
2523;DHT22;1272;53.332;9.860;2024-03-25T14:31:16;11.10;1.00
2523;DHT22;1272;53.332;9.860;2024-03-25T14:33:42;11.40;1.00
2523;DHT22;1272;53.332;9.860;2024-03-25T14:36:37;11.90;1.00
2523;DHT22;1272;53.332;9.860;2024-03-25T14:39:02;12.40;1.00
2523;DHT22;1272;53.332;9.860;2024-03-25T14:41:38;12.70;1.00
2523;DHT22;1272;53.332;9.860;2024-03-25T14:44:04;12.90;1.00
2523;DHT22;1272;53.332;9.860;2024-03-25T14:46:30;12.70;1.00
2523;DHT22;1272;53.332;9.860;2024-03-25T14:48:55;12.40;1.00
2523;DHT22;1272;53.332;9.860;2024-03-25T14:51:21;12.20;1.00
2523;DHT22;1272;53.332;9.860;2024-03-25T14:53:46;12.00;1.00
2523;DHT22;1272;53.332;9.860;2024-03-25T14:56:12;11.60;1.00
2523;DHT22;1272;53.332;9.860;2024-03-25T14:58:38;11.50;1.00
2523;DHT22;1272;53.332;9.860;2024-03-25T15:01:06;11.60;1.00
2523;DHT22;1272;53.332;9.860;2024-03-25T15:03:35;11.70;1.00
2523;DHT22;1272;53.332;9.860;2024-03-25T15:06:01;11.90;1.00
2523;DHT22;1272;53.332;9.860;2024-03-25T15:08:31;12.00;1.00
2523;DHT22;1272;53.332;9.860;2024-03-25T15:10:56;12.20;1.00
2523;DHT22;1272;53.332;9.860;2024-03-25T15:13:22;12.40;1.00
2523;DHT22;1272;53.332;9.860;2024-03-25T15:15:48;12.50;1.00
2523;DHT22;1272;53.332;9.860;2024-03-25T15:18:13;12.60;1.00
2523;DHT22;1272;53.332;9.860;2024-03-25T15:20:39;12.50;1.00
2523;DHT22;1272;53.332;9.860;2024-03-25T15:23:05;12.40;1.00
2523;DHT22;1272;53.332;9.860;2024-03-25T15:25:32;12.40;1.00
2523;DHT22;1272;53.332;9.860;2024-03-25T15:27:58;12.20;1.00
2523;DHT22;1272;53.332;9.860;2024-03-25T15:30:24;12.20;1.00
2523;DHT22;1272;53.332;9.860;2024-03-25T15:32:49;12.40;1.00
2523;DHT22;1272;53.332;9.860;2024-03-25T15:35:15;12.50;1.00
2523;DHT22;1272;53.332;9.860;2024-03-25T15:37:41;12.60;1.00
2523;DHT22;1272;53.332;9.860;2024-03-25T15:40:07;12.70;1.00
2523;DHT22;1272;53.332;9.860;2024-03-25T15:42:35;12.80;1.00
2523;DHT22;1272;53.332;9.860;2024-03-25T15:45:01;12.90;1.00
2523;DHT22;1272;53.332;9.860;2024-03-25T15:47:26;12.90;1.00
2523;DHT22;1272;53.332;9.860;2024-03-25T15:49:52;13.10;1.00
2523;DHT22;1272;53.332;9.860;2024-03-25T15:52:18;13.20;1.00
2523;DHT22;1272;53.332;9.860;2024-03-25T15:54:43;13.10;1.00
2523;DHT22;1272;53.332;9.860;2024-03-25T15:57:09;13.00;1.00
2523;DHT22;1272;53.332;9.860;2024-03-25T15:59:35;13.00;1.00
2523;DHT22;1272;53.332;9.860;2024-03-25T16:02:00;13.00;1.00
2523;DHT22;1272;53.332;9.860;2024-03-25T16:04:26;12.90;1.00
2523;DHT22;1272;53.332;9.860;2024-03-25T16:06:52;12.70;1.00
2523;DHT22;1272;53.332;9.860;2024-03-25T16:09:18;12.50;1.00
2523;DHT22;1272;53.332;9.860;2024-03-25T16:11:44;12.30;1.00
2523;DHT22;1272;53.332;9.860;2024-03-25T16:14:10;12.20;1.00
2523;DHT22;1272;53.332;9.860;2024-03-25T16:16:41;12.10;1.00
2523;DHT22;1272;53.332;9.860;2024-03-25T16:19:07;11.90;1.00